sensor_id;sensor_type;location;lat;lon;timestamp;temperature;humidity
29817;DHT22;16805;52.956;5.906;2023-06-14T18:25:32;24.00;96.10
29817;DHT22;16805;52.956;5.906;2023-06-14T18:28:43;23.80;96.80
29817;DHT22;16805;52.956;5.906;2023-06-14T18:36:53;23.70;96.70
29817;DHT22;16805;52.956;5.906;2023-06-14T18:39:21;23.70;97.30
29817;DHT22;16805;52.956;5.906;2023-06-14T18:41:47;23.60;97.50
29817;DHT22;16805;52.956;5.906;2023-06-14T18:44:13;23.60;97.50
29817;DHT22;16805;52.956;5.906;2023-06-14T18:46:38;23.50;97.70
29817;DHT22;16805;52.956;5.906;2023-06-14T18:49:04;23.40;97.70
29817;DHT22;16805;52.956;5.906;2023-06-14T18:51:30;23.40;97.60
29817;DHT22;16805;52.956;5.906;2023-06-14T18:56:34;23.30;97.40
29817;DHT22;16805;52.956;5.906;2023-06-14T19:00:29;23.20;97.90
29817;DHT22;16805;52.956;5.906;2023-06-14T19:11:01;23.70;99.90
29817;DHT22;16805;52.956;5.906;2023-06-14T19:13:26;24.70;99.90
29817;DHT22;16805;52.956;5.906;2023-06-14T19:16:40;24.90;99.20
29817;DHT22;16805;52.956;5.906;2023-06-14T19:23:25;25.10;98.90
29817;DHT22;16805;52.956;5.906;2023-06-14T19:25:52;25.00;99.20
29817;DHT22;16805;52.956;5.906;2023-06-14T19:28:17;25.00;99.10
29817;DHT22;16805;52.956;5.906;2023-06-14T19:30:43;25.10;99.10
29817;DHT22;16805;52.956;5.906;2023-06-14T19:33:09;25.10;99.10
29817;DHT22;16805;52.956;5.906;2023-06-14T19:35:34;25.10;99.20
29817;DHT22;16805;52.956;5.906;2023-06-14T19:38:00;25.00;99.10
29817;DHT22;16805;52.956;5.906;2023-06-14T19:40:26;25.00;99.10
29817;DHT22;16805;52.956;5.906;2023-06-14T19:42:51;25.00;99.10
29817;DHT22;16805;52.956;5.906;2023-06-14T19:45:17;25.00;99.10
29817;DHT22;16805;52.956;5.906;2023-06-14T19:47:43;25.00;99.30
29817;DHT22;16805;52.956;5.906;2023-06-14T19:50:10;25.00;99.20
29817;DHT22;16805;52.956;5.906;2023-06-14T19:52:35;25.00;99.20
29817;DHT22;16805;52.956;5.906;2023-06-14T19:55:02;25.00;99.20
29817;DHT22;16805;52.956;5.906;2023-06-14T19:57:27;25.00;99.20
29817;DHT22;16805;52.956;5.906;2023-06-14T19:59:53;25.00;99.20
29817;DHT22;16805;52.956;5.906;2023-06-14T20:02:19;25.00;99.30
29817;DHT22;16805;52.956;5.906;2023-06-14T20:04:46;25.00;99.30
29817;DHT22;16805;52.956;5.906;2023-06-14T20:07:12;25.00;99.30
29817;DHT22;16805;52.956;5.906;2023-06-14T20:09:38;25.00;99.30
29817;DHT22;16805;52.956;5.906;2023-06-14T20:12:04;25.00;99.30
29817;DHT22;16805;52.956;5.906;2023-06-14T20:14:30;25.00;99.30
29817;DHT22;16805;52.956;5.906;2023-06-14T20:16:56;25.00;99.30
29817;DHT22;16805;52.956;5.906;2023-06-14T20:19:22;25.00;99.40
29817;DHT22;16805;52.956;5.906;2023-06-14T20:21:48;25.00;99.40
29817;DHT22;16805;52.956;5.906;2023-06-14T20:24:14;25.00;99.40
29817;DHT22;16805;52.956;5.906;2023-06-14T20:26:39;25.00;99.40
29817;DHT22;16805;52.956;5.906;2023-06-14T20:29:05;25.00;99.40
29817;DHT22;16805;52.956;5.906;2023-06-14T20:31:31;24.90;99.40
29817;DHT22;16805;52.956;5.906;2023-06-14T20:33:56;24.90;99.40
29817;DHT22;16805;52.956;5.906;2023-06-14T20:36:22;24.90;99.40
29817;DHT22;16805;52.956;5.906;2023-06-14T20:38:48;24.90;99.40
29817;DHT22;16805;52.956;5.906;2023-06-14T20:41:14;24.90;99.50
29817;DHT22;16805;52.956;5.906;2023-06-14T20:43:40;24.90;99.50
29817;DHT22;16805;52.956;5.906;2023-06-14T20:46:08;24.90;99.50
29817;DHT22;16805;52.956;5.906;2023-06-14T20:48:34;24.80;99.50
29817;DHT22;16805;52.956;5.906;2023-06-14T20:51:00;24.80;99.50
29817;DHT22;16805;52.956;5.906;2023-06-14T20:53:25;24.80;99.50
29817;DHT22;16805;52.956;5.906;2023-06-14T20:55:51;24.80;99.50
29817;DHT22;16805;52.956;5.906;2023-06-14T20:58:17;24.80;99.60
29817;DHT22;16805;52.956;5.906;2023-06-14T21:00:44;24.80;99.60
29817;DHT22;16805;52.956;5.906;2023-06-14T21:03:12;24.80;99.60
29817;DHT22;16805;52.956;5.906;2023-06-14T21:05:38;24.80;99.60
29817;DHT22;16805;52.956;5.906;2023-06-14T21:08:05;24.80;99.60
29817;DHT22;16805;52.956;5.906;2023-06-14T21:10:30;24.80;99.60
29817;DHT22;16805;52.956;5.906;2023-06-14T21:12:57;24.80;99.60
29817;DHT22;16805;52.956;5.906;2023-06-14T21:15:23;24.80;99.70
29817;DHT22;16805;52.956;5.906;2023-06-14T21:17:54;24.80;99.60
29817;DHT22;16805;52.956;5.906;2023-06-14T21:20:21;24.80;99.60
29817;DHT22;16805;52.956;5.906;2023-06-14T21:22:46;24.70;99.70
29817;DHT22;16805;52.956;5.906;2023-06-14T21:25:16;24.80;99.70
29817;DHT22;16805;52.956;5.906;2023-06-14T21:27:42;24.70;99.70
29817;DHT22;16805;52.956;5.906;2023-06-14T21:30:08;24.70;99.70
29817;DHT22;16805;52.956;5.906;2023-06-14T21:32:35;24.70;99.70
29817;DHT22;16805;52.956;5.906;2023-06-14T21:35:02;24.70;99.90
29817;DHT22;16805;52.956;5.906;2023-06-14T21:37:28;24.70;99.80
29817;DHT22;16805;52.956;5.906;2023-06-14T21:39:53;24.70;99.70
29817;DHT22;16805;52.956;5.906;2023-06-14T21:42:19;24.70;99.70
29817;DHT22;16805;52.956;5.906;2023-06-14T21:44:45;24.70;99.70
29817;DHT22;16805;52.956;5.906;2023-06-14T21:47:12;24.70;99.70
29817;DHT22;16805;52.956;5.906;2023-06-14T21:49:39;24.70;99.80
29817;DHT22;16805;52.956;5.906;2023-06-14T21:52:06;24.70;99.70
29817;DHT22;16805;52.956;5.906;2023-06-14T21:54:31;24.70;99.70
29817;DHT22;16805;52.956;5.906;2023-06-14T21:56:57;24.70;99.80
29817;DHT22;16805;52.956;5.906;2023-06-14T21:59:23;24.70;99.70
29817;DHT22;16805;52.956;5.906;2023-06-14T22:01:48;24.70;99.80
29817;DHT22;16805;52.956;5.906;2023-06-14T22:04:15;24.70;99.80
29817;DHT22;16805;52.956;5.906;2023-06-14T22:06:40;24.60;99.70
29817;DHT22;16805;52.956;5.906;2023-06-14T22:09:11;24.60;99.70
29817;DHT22;16805;52.956;5.906;2023-06-14T22:11:40;24.70;99.70
29817;DHT22;16805;52.956;5.906;2023-06-14T22:14:10;24.60;99.70
29817;DHT22;16805;52.956;5.906;2023-06-14T22:16:36;24.70;99.70
29817;DHT22;16805;52.956;5.906;2023-06-14T22:19:04;24.60;99.70
29817;DHT22;16805;52.956;5.906;2023-06-14T22:21:30;24.70;99.70
29817;DHT22;16805;52.956;5.906;2023-06-14T22:24:00;24.60;99.80
29817;DHT22;16805;52.956;5.906;2023-06-14T22:26:26;24.60;99.70
29817;DHT22;16805;52.956;5.906;2023-06-14T22:28:56;24.60;99.70
29817;DHT22;16805;52.956;5.906;2023-06-14T22:31:22;24.60;99.70
29817;DHT22;16805;52.956;5.906;2023-06-14T22:33:48;24.60;99.80
29817;DHT22;16805;52.956;5.906;2023-06-14T22:36:16;24.60;99.70
29817;DHT22;16805;52.956;5.906;2023-06-14T22:38:43;24.60;99.70
29817;DHT22;16805;52.956;5.906;2023-06-14T22:41:10;24.60;99.70
29817;DHT22;16805;52.956;5.906;2023-06-14T22:43:40;24.60;99.70
29817;DHT22;16805;52.956;5.906;2023-06-14T22:46:08;24.60;99.70
29817;DHT22;16805;52.956;5.906;2023-06-14T22:48:36;24.60;99.70
29817;DHT22;16805;52.956;5.906;2023-06-14T22:51:13;24.60;99.70
29817;DHT22;16805;52.956;5.906;2023-06-14T22:53:40;24.60;99.70
29817;DHT22;16805;52.956;5.906;2023-06-14T22:56:07;24.50;99.60
29817;DHT22;16805;52.956;5.906;2023-06-14T22:58:33;24.60;99.70
29817;DHT22;16805;52.956;5.906;2023-06-14T23:00:59;24.50;99.70
29817;DHT22;16805;52.956;5.906;2023-06-14T23:03:26;24.50;99.70
29817;DHT22;16805;52.956;5.906;2023-06-14T23:05:53;24.50;99.70
29817;DHT22;16805;52.956;5.906;2023-06-14T23:08:22;24.50;99.60
29817;DHT22;16805;52.956;5.906;2023-06-14T23:10:47;24.50;99.70
29817;DHT22;16805;52.956;5.906;2023-06-14T23:13:15;24.50;99.60
29817;DHT22;16805;52.956;5.906;2023-06-14T23:15:41;24.50;99.60
29817;DHT22;16805;52.956;5.906;2023-06-14T23:18:08;24.50;99.70
29817;DHT22;16805;52.956;5.906;2023-06-14T23:20:33;24.50;99.60
29817;DHT22;16805;52.956;5.906;2023-06-14T23:23:01;24.50;99.60
29817;DHT22;16805;52.956;5.906;2023-06-14T23:25:29;24.50;99.60
29817;DHT22;16805;52.956;5.906;2023-06-14T23:27:57;24.50;99.60
29817;DHT22;16805;52.956;5.906;2023-06-14T23:30:23;24.50;99.50
29817;DHT22;16805;52.956;5.906;2023-06-14T23:32:52;24.50;99.50
29817;DHT22;16805;52.956;5.906;2023-06-14T23:35:17;24.50;99.60
29817;DHT22;16805;52.956;5.906;2023-06-14T23:37:43;24.50;99.60
29817;DHT22;16805;52.956;5.906;2023-06-14T23:40:09;24.50;99.60
29817;DHT22;16805;52.956;5.906;2023-06-14T23:42:36;24.50;99.50
29817;DHT22;16805;52.956;5.906;2023-06-14T23:45:06;24.40;99.60
29817;DHT22;16805;52.956;5.906;2023-06-14T23:47:32;24.40;99.50
29817;DHT22;16805;52.956;5.906;2023-06-14T23:50:01;24.40;99.50
29817;DHT22;16805;52.956;5.906;2023-06-14T23:52:30;24.40;99.50
29817;DHT22;16805;52.956;5.906;2023-06-14T23:54:57;24.40;99.50
29817;DHT22;16805;52.956;5.906;2023-06-14T23:57:27;24.40;99.50
29817;DHT22;16805;52.956;5.906;2023-06-14T23:59:52;24.50;99.50
